Aérodrome :
LOGIN :

S'inscrire | Disclaimer

   EN    FR    IT 

 










Légende :    VFR   VFR Marginal   IFR   IFR Intensif   IFR Très Intensif
Visi : 
Plafond : 
>= 8 km
>= 3000ft
5 à 8 km
1000 à 3000 ft
1500m à 5 km
500 à 1000 ft
800 à 1500m
200 à 500 ft
< 800m
< 200 ft
Symboles :   Orages  Brouillard  Fortes neiges  Fortes précipitations  Vent > 20 kt
SIGMETs :   Divers  Orages  Givrage  Turbulence  Onde Orograph.  Cendres Volcan.







- Altitude de l'aérodrome : 1521 ft
- Code IATA : NCY
- Voir les cartes d'approche


LFLP - Annecy

DERNIER METAR :
  • 202030Z AUTO 03004KT 8000 -RA FEW005 OVC010 03/02 Q1008

METARs EXPIRÉS :
  • 202000Z AUTO 06004KT 020V100 9999 -RA OVC011 03/02 Q1008 TEMPO 3000 RA BKN008 OVC013
  • 201930Z AUTO VRB02KT 7000 -RA BKN012 OVC018 03/02 Q1008 TEMPO 3000 RA BKN008 OVC013
  • 201900Z AUTO 08004KT 6000 -RA BKN013 OVC019 03/02 Q1009 TEMPO 3000 RA BKN008 OVC013
  • 201830Z AUTO 10004KT 9999 BKN011 OVC020 03/02 Q1009 TEMPO 3000 RA BKN008 OVC013
  • 201800Z AUTO 11006KT 8000 -RA BKN015 OVC022 03/02 Q1009 TEMPO 3000 RA BKN008 OVC013

TAF TAF LFLP
Valide du 20 à 15h jusqu'au 21 à 15h UTC


201400Z 2015/2115 22006KT 6000 -RA BKN015
TEMPO 2015/2102 3000 RA BKN008 OVC013
TEMPO 2102/2109 NSW BKN035
Pas de NOTAMs connus pour ce terrain.
11 SIGMETs publiés pour la FIR Marseille (LFMM) :
 
Turbulence forte
LFMM SIGMET 22 VALID 202300/210300 LFPW
LFMM MARSEILLE FIR/UIR SEV TURB FCST WI N4630 E00545 - N4630 E00700 - N4400 E00700 - N4345 E00800 - N4300 E00615 - N4630 E00545 SFC/FL120 STNR NC=
Turbulence forte
LFMM SIGMET 21 VALID 202300/210300 LFPW
LFMM MARSEILLE FIR/UIR SEV TURB FCST WI N4200 E00430 - N4200 E00415 - N4215 E00230 - N4300 E00245 - N4345 E00800 - N4315 E00945 - N4145 E00945 - N4115 E00930 - N4115 E00815 - N4200 E00430 SFC/FL070 STNR INTSF=
Turbulence forte
LFMM SIGMET 20 VALID 202300/210300 LFPW
LFMM MARSEILLE FIR/UIR SEV TURB FCST NW OF LINE N4215 E00300 - N4630 E00445 SFC/FL100 STNR NC=
Onde orographique forte
LFMM SIGMET 19 VALID 202300/210300 LFPW
LFMM MARSEILLE FIR/UIR SEV MTW FCST E OF E00845 SFC/FL200 STNR NC=
Onde orographique forte
LFMM SIGMET 18 VALID 202300/210300 LFPW
LFMM MARSEILLE FIR/UIR SEV MTW FCST WI N4215 E00345 - N4215 E00230 - N4245 E00230 - N4230 E00345 - N4215 E00345 SFC/FL350 STNR NC=
Annulation du SIGMET 10
LFMM SIGMET 17 VALID 201950/202100 LFPW
LFMM MARSEILLE FIR/UIR CNL SIGMET 10 201800/202100=
Turbulence forte
LFMM SIGMET 16 VALID 202000/202300 LFPW
LFMM MARSEILLE FIR/UIR SEV TURB FCST WI N4545 E00700 - N4400 E00700 - N4345 E00800 - N4300 E00615 - N4545 E00600 - N4545 E00700 SFC/FL120 STNR NC=
Turbulence forte
LFMM SIGMET 15 VALID 201930/202300 LFPW
LFMM MARSEILLE FIR/UIR SEV TURB FCST WI N4200 E00430 - N4200 E00415 - N4215 E00230 - N4300 E00245 - N4345 E00800 - N4315 E00945 - N4145 E00945 - N4115 E00930 - N4115 E00815 - N4200 E00430 SFC/FL070 STNR INTSF=
Turbulence forte
LFMM SIGMET 14 VALID 202000/202300 LFPW
LFMM MARSEILLE FIR/UIR SEV TURB FCST NW OF LINE N4215 E00300 - N4630 E00445 SFC/FL100 STNR INTSF=
Onde orographique forte
LFMM SIGMET 13 VALID 202000/202300 LFPW
LFMM MARSEILLE FIR/UIR SEV MTW FCST WI N4215 E00345 - N4215 E00230 - N4245 E00230 - N4230 E00345 - N4215 E00345 SFC/FL350 STNR NC=
Onde orographique forte
LFMM SIGMET 12 VALID 202000/202300 LFPW
LFMM MARSEILLE FIR/UIR SEV MTW FCST E OF E00845 SFC/FL200 STNR NC=



MET'MAP, la Météo Aéronautique d'un coup d'oeil ! - Copyright ORBIFLY Décembre 2007 - Disclaimer

ORBIFLY MET'MAP TEAM :

Programmation & Développement : Alexandra Zaïnal
Conception & Développement : Baudouin d'Aumeries
Co-Programmation & Développement : Marc-Olivier Méhu
Soutien technique & logistique : Manuel Goepfert

Contact : metmap@orbifly.com




SOURCES & CREDITS :

   NOAA